sensor_id;sensor_type;location;lat;lon;timestamp;pressure;altitude;pressure_sealevel;temperature;humidity
23953;BME280;12163;49.316;6.092;2022-12-18T00:01:04;100503.72;;;-5.41;77.06
23953;BME280;12163;49.316;6.092;2022-12-18T00:03:35;100503.91;;;-5.43;76.47
23953;BME280;12163;49.316;6.092;2022-12-18T00:06:03;100519.69;;;-5.43;76.28
23953;BME280;12163;49.316;6.092;2022-12-18T00:08:29;100517.72;;;-5.41;76.66
23953;BME280;12163;49.316;6.092;2022-12-18T00:11:03;100518.53;;;-5.40;76.99
23953;BME280;12163;49.316;6.092;2022-12-18T00:13:32;100504.38;;;-5.39;76.39
23953;BME280;12163;49.316;6.092;2022-12-18T00:16:04;100503.59;;;-5.40;76.52
23953;BME280;12163;49.316;6.092;2022-12-18T00:18:32;100500.78;;;-5.38;76.55
23953;BME280;12163;49.316;6.092;2022-12-18T00:21:00;100502.41;;;-5.37;76.59
23953;BME280;12163;49.316;6.092;2022-12-18T00:23:28;100504.25;;;-5.38;76.69
23953;BME280;12163;49.316;6.092;2022-12-18T00:25:58;100505.03;;;-5.37;76.11
23953;BME280;12163;49.316;6.092;2022-12-18T00:28:24;100496.34;;;-5.38;76.15
23953;BME280;12163;49.316;6.092;2022-12-18T00:31:08;100503.25;;;-5.37;76.60
23953;BME280;12163;49.316;6.092;2022-12-18T00:33:36;100499.63;;;-5.36;76.35
23953;BME280;12163;49.316;6.092;2022-12-18T00:36:11;100498.00;;;-5.37;76.49
23953;BME280;12163;49.316;6.092;2022-12-18T00:38:39;100493.53;;;-5.36;76.22
23953;BME280;12163;49.316;6.092;2022-12-18T00:41:07;100498.81;;;-5.36;76.17
23953;BME280;12163;49.316;6.092;2022-12-18T00:43:36;100497.16;;;-5.37;76.59
23953;BME280;12163;49.316;6.092;2022-12-18T00:46:04;100499.78;;;-5.37;76.14
23953;BME280;12163;49.316;6.092;2022-12-18T00:48:31;100498.16;;;-5.38;76.73
23953;BME280;12163;49.316;6.092;2022-12-18T00:50:58;100496.34;;;-5.38;76.16
23953;BME280;12163;49.316;6.092;2022-12-18T00:53:25;100501.75;;;-5.39;76.39
23953;BME280;12163;49.316;6.092;2022-12-18T00:55:51;100500.78;;;-5.38;76.51
23953;BME280;12163;49.316;6.092;2022-12-18T00:58:18;100505.38;;;-5.40;75.78
23953;BME280;12163;49.316;6.092;2022-12-18T01:00:45;100512.28;;;-5.39;75.85
23953;BME280;12163;49.316;6.092;2022-12-18T01:03:14;100490.25;;;-5.38;75.81
23953;BME280;12163;49.316;6.092;2022-12-18T01:05:41;100494.84;;;-5.40;76.14
23953;BME280;12163;49.316;6.092;2022-12-18T01:08:08;100493.88;;;-5.39;76.37
23953;BME280;12163;49.316;6.092;2022-12-18T01:10:35;100486.16;;;-5.41;75.86
23953;BME280;12163;49.316;6.092;2022-12-18T01:13:01;100488.94;;;-5.42;76.19
23953;BME280;12163;49.316;6.092;2022-12-18T01:15:28;100496.16;;;-5.44;75.81
23953;BME280;12163;49.316;6.092;2022-12-18T01:17:55;100494.66;;;-5.47;76.47
23953;BME280;12163;49.316;6.092;2022-12-18T01:20:21;100495.16;;;-5.51;76.08
23953;BME280;12163;49.316;6.092;2022-12-18T01:22:48;100495.78;;;-5.57;75.71
23953;BME280;12163;49.316;6.092;2022-12-18T01:25:15;100499.72;;;-5.61;76.11
23953;BME280;12163;49.316;6.092;2022-12-18T01:27:41;100505.97;;;-5.62;76.20
23953;BME280;12163;49.316;6.092;2022-12-18T01:30:08;100508.91;;;-5.65;76.26
23953;BME280;12163;49.316;6.092;2022-12-18T01:32:35;100505.63;;;-5.67;76.11
23953;BME280;12163;49.316;6.092;2022-12-18T01:35:02;100495.25;;;-5.69;76.35
23953;BME280;12163;49.316;6.092;2022-12-18T01:37:28;100496.22;;;-5.70;75.67
23953;BME280;12163;49.316;6.092;2022-12-18T01:39:55;100485.91;;;-5.71;76.08
23953;BME280;12163;49.316;6.092;2022-12-18T01:42:22;100490.16;;;-5.70;76.23
23953;BME280;12163;49.316;6.092;2022-12-18T01:50:04;100499.03;;;-5.71;76.37
23953;BME280;12163;49.316;6.092;2022-12-18T01:52:33;100501.81;;;-5.73;76.35
23953;BME280;12163;49.316;6.092;2022-12-18T01:55:02;100509.56;;;-5.71;76.02
23953;BME280;12163;49.316;6.092;2022-12-18T01:57:29;100513.16;;;-5.72;75.89
23953;BME280;12163;49.316;6.092;2022-12-18T02:00:00;100519.75;;;-5.68;76.18
23953;BME280;12163;49.316;6.092;2022-12-18T02:02:28;100516.94;;;-5.67;76.65
23953;BME280;12163;49.316;6.092;2022-12-18T02:04:58;100508.25;;;-5.67;76.20
23953;BME280;12163;49.316;6.092;2022-12-18T02:10:24;100507.41;;;-5.68;76.70
23953;BME280;12163;49.316;6.092;2022-12-18T02:13:12;100510.88;;;-5.67;76.30
23953;BME280;12163;49.316;6.092;2022-12-18T02:16:06;100511.19;;;-5.70;76.56
23953;BME280;12163;49.316;6.092;2022-12-18T02:18:41;100505.28;;;-5.64;76.97
23953;BME280;12163;49.316;6.092;2022-12-18T02:21:44;100484.13;;;-5.63;76.63
23953;BME280;12163;49.316;6.092;2022-12-18T02:24:33;100493.34;;;-5.59;76.69
23953;BME280;12163;49.316;6.092;2022-12-18T02:27:05;100499.06;;;-5.55;76.08
23953;BME280;12163;49.316;6.092;2022-12-18T02:29:39;100492.69;;;-5.53;76.85
23953;BME280;12163;49.316;6.092;2022-12-18T02:32:11;100485.47;;;-5.51;76.19
23953;BME280;12163;49.316;6.092;2022-12-18T02:34:40;100494.84;;;-5.48;76.49
23953;BME280;12163;49.316;6.092;2022-12-18T02:37:12;100502.72;;;-5.48;76.40
23953;BME280;12163;49.316;6.092;2022-12-18T02:39:42;100504.69;;;-5.50;76.82
23953;BME280;12163;49.316;6.092;2022-12-18T02:42:10;100509.28;;;-5.52;76.24
23953;BME280;12163;49.316;6.092;2022-12-18T02:44:45;100500.75;;;-5.54;76.32
23953;BME280;12163;49.316;6.092;2022-12-18T02:47:13;100502.41;;;-5.53;76.28
23953;BME280;12163;49.316;6.092;2022-12-18T02:49:44;100502.06;;;-5.50;76.71
23953;BME280;12163;49.316;6.092;2022-12-18T02:55:18;100510.81;;;-5.42;75.91
23953;BME280;12163;49.316;6.092;2022-12-18T03:05:41;100519.56;;;-5.25;76.16
23953;BME280;12163;49.316;6.092;2022-12-18T03:08:18;100511.34;;;-5.22;76.39
23953;BME280;12163;49.316;6.092;2022-12-18T03:10:50;100517.09;;;-5.19;76.31
23953;BME280;12163;49.316;6.092;2022-12-18T03:14:08;100517.09;;;-5.19;76.83
23953;BME280;12163;49.316;6.092;2022-12-18T03:16:12;100512.66;;;-5.18;76.38
23953;BME280;12163;49.316;6.092;2022-12-18T03:18:48;100512.66;;;-5.18;75.82
23953;BME280;12163;49.316;6.092;2022-12-18T03:21:20;100508.72;;;-5.22;76.35
23953;BME280;12163;49.316;6.092;2022-12-18T03:23:50;100513.97;;;-5.22;76.03
23953;BME280;12163;49.316;6.092;2022-12-18T03:26:21;100511.66;;;-5.25;75.98
23953;BME280;12163;49.316;6.092;2022-12-18T03:28:55;100506.72;;;-5.28;75.97
23953;BME280;12163;49.316;6.092;2022-12-18T03:31:24;100512.31;;;-5.31;76.39
23953;BME280;12163;49.316;6.092;2022-12-18T03:33:57;100502.94;;;-5.34;75.50
23953;BME280;12163;49.316;6.092;2022-12-18T03:36:25;100500.63;;;-5.37;76.40
23953;BME280;12163;49.316;6.092;2022-12-18T03:38:52;100501.09;;;-5.41;75.85
23953;BME280;12163;49.316;6.092;2022-12-18T03:41:33;100508.66;;;-5.46;75.68
23953;BME280;12163;49.316;6.092;2022-12-18T03:52:08;100504.31;;;-5.63;76.41
23953;BME280;12163;49.316;6.092;2022-12-18T03:54:36;100506.13;;;-5.64;75.85
23953;BME280;12163;49.316;6.092;2022-12-18T03:57:09;100515.28;;;-5.68;75.82
23953;BME280;12163;49.316;6.092;2022-12-18T03:59:38;100513.16;;;-5.72;76.18
23953;BME280;12163;49.316;6.092;2022-12-18T04:02:06;100503.97;;;-5.76;75.68
23953;BME280;12163;49.316;6.092;2022-12-18T04:04:35;100495.59;;;-5.80;75.89
23953;BME280;12163;49.316;6.092;2022-12-18T04:07:04;100503.94;;;-5.84;76.04
23953;BME280;12163;49.316;6.092;2022-12-18T04:09:32;100500.63;;;-5.86;75.78
23953;BME280;12163;49.316;6.092;2022-12-18T04:12:00;100499.31;;;-5.90;75.95
23953;BME280;12163;49.316;6.092;2022-12-18T04:14:27;100492.75;;;-5.94;75.83
23953;BME280;12163;49.316;6.092;2022-12-18T04:16:53;100497.47;;;-5.98;75.86
23953;BME280;12163;49.316;6.092;2022-12-18T04:19:20;100499.44;;;-6.00;75.71
23953;BME280;12163;49.316;6.092;2022-12-18T04:21:47;100491.69;;;-6.01;75.73
23953;BME280;12163;49.316;6.092;2022-12-18T04:24:13;100497.94;;;-6.02;76.01
23953;BME280;12163;49.316;6.092;2022-12-18T04:26:40;100502.53;;;-6.04;75.64
23953;BME280;12163;49.316;6.092;2022-12-18T04:29:06;100493.16;;;-6.07;76.15
23953;BME280;12163;49.316;6.092;2022-12-18T04:31:33;100493.31;;;-6.08;76.13
23953;BME280;12163;49.316;6.092;2022-12-18T04:33:59;100487.41;;;-6.10;75.78
23953;BME280;12163;49.316;6.092;2022-12-18T04:36:26;100493.78;;;-6.13;76.05
23953;BME280;12163;49.316;6.092;2022-12-18T04:38:53;100499.34;;;-6.16;75.52
23953;BME280;12163;49.316;6.092;2022-12-18T04:41:20;100497.88;;;-6.18;75.91
23953;BME280;12163;49.316;6.092;2022-12-18T04:43:47;100492.94;;;-6.21;76.13
23953;BME280;12163;49.316;6.092;2022-12-18T04:46:13;100491.56;;;-6.25;76.15
23953;BME280;12163;49.316;6.092;2022-12-18T04:48:40;100497.13;;;-6.28;75.64
23953;BME280;12163;49.316;6.092;2022-12-18T04:51:07;100498.13;;;-6.29;75.90
23953;BME280;12163;49.316;6.092;2022-12-18T04:53:33;100503.69;;;-6.32;75.77
23953;BME280;12163;49.316;6.092;2022-12-18T04:56:09;100507.59;;;-6.36;75.59
23953;BME280;12163;49.316;6.092;2022-12-18T04:58:37;100508.72;;;-6.39;76.08
23953;BME280;12163;49.316;6.092;2022-12-18T05:01:04;100518.72;;;-6.42;75.68
23953;BME280;12163;49.316;6.092;2022-12-18T05:03:30;100525.91;;;-6.44;75.65
23953;BME280;12163;49.316;6.092;2022-12-18T05:05:57;100527.88;;;-6.46;75.77
23953;BME280;12163;49.316;6.092;2022-12-18T05:08:24;100528.84;;;-6.47;75.95
23953;BME280;12163;49.316;6.092;2022-12-18T05:11:08;100519.31;;;-6.48;75.67
23953;BME280;12163;49.316;6.092;2022-12-18T05:13:36;100528.03;;;-6.48;75.61
23953;BME280;12163;49.316;6.092;2022-12-18T05:16:04;100519.31;;;-6.48;75.60
23953;BME280;12163;49.316;6.092;2022-12-18T05:18:31;100515.53;;;-6.53;75.69
23953;BME280;12163;49.316;6.092;2022-12-18T05:20:58;100520.56;;;-6.60;75.58
23953;BME280;12163;49.316;6.092;2022-12-18T05:23:25;100516.22;;;-6.69;75.37
23953;BME280;12163;49.316;6.092;2022-12-18T05:25:59;100523.06;;;-6.76;75.77
23953;BME280;12163;49.316;6.092;2022-12-18T05:28:29;100521.72;;;-6.80;75.40
23953;BME280;12163;49.316;6.092;2022-12-18T05:30:57;100531.00;;;-6.85;75.54
23953;BME280;12163;49.316;6.092;2022-12-18T05:33:27;100535.03;;;-6.91;75.43
23953;BME280;12163;49.316;6.092;2022-12-18T05:35:55;100541.56;;;-6.95;75.31
23953;BME280;12163;49.316;6.092;2022-12-18T05:38:23;100546.31;;;-6.98;74.94
23953;BME280;12163;49.316;6.092;2022-12-18T05:40:51;100551.31;;;-7.05;75.24
23953;BME280;12163;49.316;6.092;2022-12-18T05:43:19;100550.25;;;-7.12;74.85
23953;BME280;12163;49.316;6.092;2022-12-18T05:45:48;100554.44;;;-7.19;74.97
23953;BME280;12163;49.316;6.092;2022-12-18T05:48:16;100546.88;;;-7.22;75.07
23953;BME280;12163;49.316;6.092;2022-12-18T05:50:44;100546.22;;;-7.24;74.78
23953;BME280;12163;49.316;6.092;2022-12-18T05:53:18;100541.56;;;-7.30;75.19
23953;BME280;12163;49.316;6.092;2022-12-18T05:55:46;100544.31;;;-7.31;75.00
23953;BME280;12163;49.316;6.092;2022-12-18T05:58:13;100545.44;;;-7.34;75.13
23953;BME280;12163;49.316;6.092;2022-12-18T06:00:42;100538.44;;;-6.81;77.73
23953;BME280;12163;49.316;6.092;2022-12-18T06:03:10;100534.63;;;-5.43;80.43
23953;BME280;12163;49.316;6.092;2022-12-18T06:05:39;100532.38;;;-3.95;81.25
23953;BME280;12163;49.316;6.092;2022-12-18T06:08:07;100528.59;;;-2.93;77.51
23953;BME280;12163;49.316;6.092;2022-12-18T06:10:34;100537.66;;;-3.18;71.18
23953;BME280;12163;49.316;6.092;2022-12-18T06:13:01;100539.22;;;-3.78;70.08
23953;BME280;12163;49.316;6.092;2022-12-18T06:15:28;100554.50;;;-4.36;69.19
23953;BME280;12163;49.316;6.092;2022-12-18T06:17:54;100563.38;;;-4.85;70.01
23953;BME280;12163;49.316;6.092;2022-12-18T06:20:21;100567.09;;;-5.11;70.26
23953;BME280;12163;49.316;6.092;2022-12-18T06:22:48;100571.50;;;-5.27;70.76
23953;BME280;12163;49.316;6.092;2022-12-18T06:25:15;100573.41;;;-5.45;70.73
23953;BME280;12163;49.316;6.092;2022-12-18T06:27:41;100577.59;;;-5.60;70.94
23953;BME280;12163;49.316;6.092;2022-12-18T06:30:09;100588.09;;;-5.68;71.41
23953;BME280;12163;49.316;6.092;2022-12-18T06:32:36;100596.28;;;-5.71;71.57
23953;BME280;12163;49.316;6.092;2022-12-18T06:35:03;100595.78;;;-5.75;71.72
23953;BME280;12163;49.316;6.092;2022-12-18T06:37:31;100593.66;;;-5.71;71.72
23953;BME280;12163;49.316;6.092;2022-12-18T06:39:58;100603.69;;;-5.67;71.73
23953;BME280;12163;49.316;6.092;2022-12-18T06:42:24;100591.91;;;-5.63;72.05
23953;BME280;12163;49.316;6.092;2022-12-18T06:44:51;100602.09;;;-5.60;72.36
23953;BME280;12163;49.316;6.092;2022-12-18T06:47:18;100599.31;;;-5.58;72.41
23953;BME280;12163;49.316;6.092;2022-12-18T06:49:45;100592.41;;;-5.59;72.04
23953;BME280;12163;49.316;6.092;2022-12-18T06:52:11;100601.59;;;-5.55;72.46
23953;BME280;12163;49.316;6.092;2022-12-18T06:54:38;100601.00;;;-5.49;72.57
23953;BME280;12163;49.316;6.092;2022-12-18T06:57:04;100593.31;;;-5.43;72.49
23953;BME280;12163;49.316;6.092;2022-12-18T06:59:31;100597.94;;;-5.37;73.35
23953;BME280;12163;49.316;6.092;2022-12-18T07:01:57;100606.31;;;-5.33;72.86
23953;BME280;12163;49.316;6.092;2022-12-18T07:04:29;100609.47;;;-5.30;73.03
23953;BME280;12163;49.316;6.092;2022-12-18T07:06:56;100608.81;;;-5.24;73.71
23953;BME280;12163;49.316;6.092;2022-12-18T07:09:24;100601.78;;;-5.15;73.76
23953;BME280;12163;49.316;6.092;2022-12-18T07:11:51;100599.50;;;-5.10;73.74
23953;BME280;12163;49.316;6.092;2022-12-18T07:14:18;100599.50;;;-5.10;73.43
23953;BME280;12163;49.316;6.092;2022-12-18T07:16:44;100593.94;;;-5.07;73.17
23953;BME280;12163;49.316;6.092;2022-12-18T07:19:11;100587.84;;;-5.08;73.47
23953;BME280;12163;49.316;6.092;2022-12-18T07:21:38;100598.88;;;-5.04;73.81
23953;BME280;12163;49.316;6.092;2022-12-18T07:24:05;100596.91;;;-5.02;73.77
23953;BME280;12163;49.316;6.092;2022-12-18T07:26:32;100596.56;;;-4.99;74.08
23953;BME280;12163;49.316;6.092;2022-12-18T07:28:58;100607.09;;;-4.99;73.86
23953;BME280;12163;49.316;6.092;2022-12-18T07:31:25;100593.78;;;-4.98;74.58
23953;BME280;12163;49.316;6.092;2022-12-18T07:33:53;100608.41;;;-4.96;73.75
23953;BME280;12163;49.316;6.092;2022-12-18T07:36:19;100607.63;;;-4.96;74.31
23953;BME280;12163;49.316;6.092;2022-12-18T07:38:49;100609.91;;;-4.93;74.71
23953;BME280;12163;49.316;6.092;2022-12-18T07:41:18;100603.34;;;-4.89;74.34
23953;BME280;12163;49.316;6.092;2022-12-18T07:43:45;100606.63;;;-4.87;74.65
23953;BME280;12163;49.316;6.092;2022-12-18T07:46:13;100595.97;;;-4.86;74.15
23953;BME280;12163;49.316;6.092;2022-12-18T07:48:41;100610.13;;;-4.79;74.61
23953;BME280;12163;49.316;6.092;2022-12-18T07:51:11;100595.97;;;-4.78;74.74
23953;BME280;12163;49.316;6.092;2022-12-18T07:53:39;100597.28;;;-4.74;74.69
23953;BME280;12163;49.316;6.092;2022-12-18T07:56:09;100588.06;;;-4.70;74.54
23953;BME280;12163;49.316;6.092;2022-12-18T07:58:54;100593.84;;;-4.66;74.60
23953;BME280;12163;49.316;6.092;2022-12-18T08:01:21;100603.22;;;-4.64;75.27
23953;BME280;12163;49.316;6.092;2022-12-18T08:03:48;100600.28;;;-4.61;74.47
23953;BME280;12163;49.316;6.092;2022-12-18T08:06:17;100595.31;;;-4.56;74.83
23953;BME280;12163;49.316;6.092;2022-12-18T08:08:44;100594.34;;;-4.55;74.51
23953;BME280;12163;49.316;6.092;2022-12-18T08:11:10;100590.88;;;-4.55;74.70
23953;BME280;12163;49.316;6.092;2022-12-18T08:13:37;100599.59;;;-4.55;75.00
23953;BME280;12163;49.316;6.092;2022-12-18T08:16:06;100598.94;;;-4.57;74.58
23953;BME280;12163;49.316;6.092;2022-12-18T08:18:35;100605.03;;;-4.56;74.82
23953;BME280;12163;49.316;6.092;2022-12-18T08:21:21;100615.41;;;-4.63;74.69
23953;BME280;12163;49.316;6.092;2022-12-18T08:23:50;100605.69;;;-4.62;74.86
23953;BME280;12163;49.316;6.092;2022-12-18T08:26:19;100604.69;;;-4.61;74.72
23953;BME280;12163;49.316;6.092;2022-12-18T08:28:47;100606.84;;;-4.65;75.00
23953;BME280;12163;49.316;6.092;2022-12-18T08:31:14;100607.66;;;-4.64;74.76
23953;BME280;12163;49.316;6.092;2022-12-18T08:33:42;100601.88;;;-4.68;74.94
23953;BME280;12163;49.316;6.092;2022-12-18T08:36:09;100602.22;;;-4.71;75.30
23953;BME280;12163;49.316;6.092;2022-12-18T08:38:36;100587.06;;;-4.69;75.40
23953;BME280;12163;49.316;6.092;2022-12-18T08:41:05;100583.63;;;-4.69;74.86
23953;BME280;12163;49.316;6.092;2022-12-18T08:43:32;100587.59;;;-4.73;75.42
23953;BME280;12163;49.316;6.092;2022-12-18T08:46:19;100589.56;;;-4.75;75.17
23953;BME280;12163;49.316;6.092;2022-12-18T08:48:46;100593.66;;;-4.73;75.41
23953;BME280;12163;49.316;6.092;2022-12-18T08:51:16;100589.56;;;-4.67;76.01
23953;BME280;12163;49.316;6.092;2022-12-18T08:53:43;100586.09;;;-4.68;75.36
23953;BME280;12163;49.316;6.092;2022-12-18T08:56:14;100579.53;;;-4.64;75.73
23953;BME280;12163;49.316;6.092;2022-12-18T08:58:41;100581.84;;;-4.61;75.86
23953;BME280;12163;49.316;6.092;2022-12-18T09:01:09;100587.28;;;-4.54;75.89
23953;BME280;12163;49.316;6.092;2022-12-18T09:03:37;100598.47;;;-4.52;75.98
23953;BME280;12163;49.316;6.092;2022-12-18T09:06:05;100585.78;;;-4.49;75.70
23953;BME280;12163;49.316;6.092;2022-12-18T09:08:32;100591.41;;;-4.44;75.86
23953;BME280;12163;49.316;6.092;2022-12-18T09:11:03;100605.22;;;-4.42;75.50
23953;BME280;12163;49.316;6.092;2022-12-18T09:13:29;100602.91;;;-4.37;75.47
23953;BME280;12163;49.316;6.092;2022-12-18T09:15:56;100599.63;;;-4.31;75.75
23953;BME280;12163;49.316;6.092;2022-12-18T09:18:23;100600.59;;;-4.24;75.48
23953;BME280;12163;49.316;6.092;2022-12-18T09:20:50;100585.28;;;-4.20;75.47
23953;BME280;12163;49.316;6.092;2022-12-18T09:23:19;100585.78;;;-4.17;75.38
23953;BME280;12163;49.316;6.092;2022-12-18T09:25:46;100593.34;;;-4.14;74.98
23953;BME280;12163;49.316;6.092;2022-12-18T09:28:17;100585.94;;;-4.10;75.44
23953;BME280;12163;49.316;6.092;2022-12-18T09:30:48;100597.81;;;-4.06;74.75
23953;BME280;12163;49.316;6.092;2022-12-18T09:33:16;100589.72;;;-4.05;74.73
23953;BME280;12163;49.316;6.092;2022-12-18T09:35:44;100580.81;;;-4.04;74.89
23953;BME280;12163;49.316;6.092;2022-12-18T09:38:14;100578.81;;;-4.02;74.57
23953;BME280;12163;49.316;6.092;2022-12-18T09:40:48;100580.81;;;-4.04;74.89
23953;BME280;12163;49.316;6.092;2022-12-18T09:43:35;100578.03;;;-4.02;74.43
23953;BME280;12163;49.316;6.092;2022-12-18T09:46:07;100578.53;;;-3.99;74.53
23953;BME280;12163;49.316;6.092;2022-12-18T09:48:42;100576.84;;;-4.00;74.38
23953;BME280;12163;49.316;6.092;2022-12-18T09:51:27;100575.41;;;-4.10;74.24
23953;BME280;12163;49.316;6.092;2022-12-18T09:54:00;100572.44;;;-4.15;74.68
23953;BME280;12163;49.316;6.092;2022-12-18T09:56:32;100576.88;;;-4.16;74.33
23953;BME280;12163;49.316;6.092;2022-12-18T09:59:02;100576.88;;;-4.16;74.62
23953;BME280;12163;49.316;6.092;2022-12-18T10:01:30;100586.75;;;-4.10;74.59
23953;BME280;12163;49.316;6.092;2022-12-18T10:04:09;100586.91;;;-4.03;74.25
23953;BME280;12163;49.316;6.092;2022-12-18T10:14:25;100566.47;;;-3.93;74.92
23953;BME280;12163;49.316;6.092;2022-12-18T10:19:54;100560.34;;;-3.86;74.36
23953;BME280;12163;49.316;6.092;2022-12-18T10:22:32;100556.41;;;-3.90;73.96
23953;BME280;12163;49.316;6.092;2022-12-18T10:27:42;100558.38;;;-3.84;74.61
23953;BME280;12163;49.316;6.092;2022-12-18T10:30:16;100556.38;;;-3.74;74.63
23953;BME280;12163;49.316;6.092;2022-12-18T10:32:43;100538.22;;;-3.69;74.63
23953;BME280;12163;49.316;6.092;2022-12-18T10:35:27;100532.59;;;-3.66;74.54
23953;BME280;12163;49.316;6.092;2022-12-18T10:40:27;100536.53;;;-3.62;74.62
23953;BME280;12163;49.316;6.092;2022-12-18T10:43:12;100525.19;;;-3.62;73.91
23953;BME280;12163;49.316;6.092;2022-12-18T10:45:39;100517.63;;;-3.65;74.61
23953;BME280;12163;49.316;6.092;2022-12-18T10:48:20;100511.16;;;-3.63;74.35
23953;BME280;12163;49.316;6.092;2022-12-18T10:50:49;100514.09;;;-3.58;74.48
23953;BME280;12163;49.316;6.092;2022-12-18T10:53:40;100511.16;;;-3.55;74.80
23953;BME280;12163;49.316;6.092;2022-12-18T10:56:08;100512.78;;;-3.54;74.74
23953;BME280;12163;49.316;6.092;2022-12-18T10:58:37;100510.94;;;-3.53;74.09
23953;BME280;12163;49.316;6.092;2022-12-18T11:03:42;100507.06;;;-3.65;74.24
23953;BME280;12163;49.316;6.092;2022-12-18T11:06:15;100509.47;;;-3.56;74.48
23953;BME280;12163;49.316;6.092;2022-12-18T11:08:45;100500.53;;;-3.47;74.40
23953;BME280;12163;49.316;6.092;2022-12-18T11:11:24;100494.56;;;-3.41;74.30
23953;BME280;12163;49.316;6.092;2022-12-18T11:16:23;100508.63;;;-3.48;74.08
23953;BME280;12163;49.316;6.092;2022-12-18T11:18:50;100502.34;;;-3.47;73.62
23953;BME280;12163;49.316;6.092;2022-12-18T11:21:17;100490.94;;;-3.40;74.42
23953;BME280;12163;49.316;6.092;2022-12-18T11:23:50;100485.66;;;-3.40;74.10
23953;BME280;12163;49.316;6.092;2022-12-18T11:26:18;100489.41;;;-3.34;74.09
23953;BME280;12163;49.316;6.092;2022-12-18T11:28:52;100498.13;;;-3.26;74.25
23953;BME280;12163;49.316;6.092;2022-12-18T11:31:33;100486.50;;;-3.17;74.51
23953;BME280;12163;49.316;6.092;2022-12-18T11:36:55;100480.28;;;-3.02;74.19
23953;BME280;12163;49.316;6.092;2022-12-18T11:39:43;100483.25;;;-2.97;74.00
23953;BME280;12163;49.316;6.092;2022-12-18T11:45:08;100485.25;;;-2.99;73.76
23953;BME280;12163;49.316;6.092;2022-12-18T11:50:14;100484.06;;;-2.96;74.05
23953;BME280;12163;49.316;6.092;2022-12-18T11:52:42;100483.59;;;-3.00;73.54
23953;BME280;12163;49.316;6.092;2022-12-18T12:01:44;100470.81;;;-2.88;74.14
23953;BME280;12163;49.316;6.092;2022-12-18T12:09:46;100461.72;;;-2.71;73.50
23953;BME280;12163;49.316;6.092;2022-12-18T12:26:27;100457.28;;;-2.19;73.42
23953;BME280;12163;49.316;6.092;2022-12-18T12:29:54;100452.06;;;-2.13;73.12
23953;BME280;12163;49.316;6.092;2022-12-18T12:32:46;100447.59;;;-2.12;73.10
23953;BME280;12163;49.316;6.092;2022-12-18T12:35:42;100444.75;;;-2.11;73.19
23953;BME280;12163;49.316;6.092;2022-12-18T12:38:18;100448.13;;;-2.02;73.27
23953;BME280;12163;49.316;6.092;2022-12-18T12:40:59;100435.66;;;-1.94;73.35
23953;BME280;12163;49.316;6.092;2022-12-18T12:43:42;100433.25;;;-1.89;73.29
23953;BME280;12163;49.316;6.092;2022-12-18T12:46:18;100432.97;;;-1.79;73.23
23953;BME280;12163;49.316;6.092;2022-12-18T12:48:56;100434.28;;;-1.75;73.22
23953;BME280;12163;49.316;6.092;2022-12-18T12:51:30;100434.06;;;-1.74;72.57
23953;BME280;12163;49.316;6.092;2022-12-18T12:53:59;100421.94;;;-1.68;72.54
23953;BME280;12163;49.316;6.092;2022-12-18T12:56:40;100426.22;;;-1.67;72.65
23953;BME280;12163;49.316;6.092;2022-12-18T13:05:26;100410.19;;;-1.66;72.62
23953;BME280;12163;49.316;6.092;2022-12-18T13:08:04;100401.03;;;-1.64;72.47
23953;BME280;12163;49.316;6.092;2022-12-18T13:10:42;100402.66;;;-1.63;71.99
23953;BME280;12163;49.316;6.092;2022-12-18T13:13:13;100397.38;;;-1.63;72.50
23953;BME280;12163;49.316;6.092;2022-12-18T13:16:04;100401.88;;;-1.63;72.14
23953;BME280;12163;49.316;6.092;2022-12-18T13:18:33;100396.81;;;-1.58;72.34
23953;BME280;12163;49.316;6.092;2022-12-18T13:23:38;100398.25;;;-1.56;72.76
23953;BME280;12163;49.316;6.092;2022-12-18T13:31:01;100384.31;;;-1.50;71.97
23953;BME280;12163;49.316;6.092;2022-12-18T13:36:15;100393.50;;;-1.46;72.22
23953;BME280;12163;49.316;6.092;2022-12-18T13:38:44;100390.72;;;-1.38;72.21
23953;BME280;12163;49.316;6.092;2022-12-18T13:51:52;100378.88;;;-1.21;71.91
23953;BME280;12163;49.316;6.092;2022-12-18T13:54:37;100378.25;;;-1.23;71.70
23953;BME280;12163;49.316;6.092;2022-12-18T13:57:30;100378.88;;;-1.21;72.40
23953;BME280;12163;49.316;6.092;2022-12-18T13:59:59;100372.19;;;-1.17;71.95
23953;BME280;12163;49.316;6.092;2022-12-18T14:02:38;100378.09;;;-1.15;72.44
23953;BME280;12163;49.316;6.092;2022-12-18T14:07:52;100378.09;;;-1.15;72.05
23953;BME280;12163;49.316;6.092;2022-12-18T14:10:21;100375.47;;;-1.15;72.16
23953;BME280;12163;49.316;6.092;2022-12-18T14:13:10;100371.00;;;-1.14;71.71
23953;BME280;12163;49.316;6.092;2022-12-18T14:15:46;100356.94;;;-1.15;72.49
23953;BME280;12163;49.316;6.092;2022-12-18T14:20:47;100365.94;;;-1.09;72.51
23953;BME280;12163;49.316;6.092;2022-12-18T14:23:34;100361.66;;;-1.10;71.96
23953;BME280;12163;49.316;6.092;2022-12-18T14:26:17;100366.56;;;-1.07;72.28
23953;BME280;12163;49.316;6.092;2022-12-18T14:28:46;100365.78;;;-1.08;72.31
23953;BME280;12163;49.316;6.092;2022-12-18T14:31:25;100367.13;;;-1.12;72.32
23953;BME280;12163;49.316;6.092;2022-12-18T14:33:53;100384.88;;;-1.12;72.27
23953;BME280;12163;49.316;6.092;2022-12-18T14:36:23;100382.03;;;-1.11;72.88
23953;BME280;12163;49.316;6.092;2022-12-18T14:38:55;100388.97;;;-1.10;72.78
23953;BME280;12163;49.316;6.092;2022-12-18T14:41:23;100378.38;;;-1.10;72.63
23953;BME280;12163;49.316;6.092;2022-12-18T14:43:51;100378.00;;;-1.07;72.76
23953;BME280;12163;49.316;6.092;2022-12-18T14:46:39;100379.00;;;-1.08;73.02
23953;BME280;12163;49.316;6.092;2022-12-18T14:49:29;100378.38;;;-1.10;72.86
23953;BME280;12163;49.316;6.092;2022-12-18T14:52:05;100367.78;;;-1.10;72.76
23953;BME280;12163;49.316;6.092;2022-12-18T14:54:34;100364.25;;;-1.17;73.03
23953;BME280;12163;49.316;6.092;2022-12-18T14:57:22;100364.00;;;-1.22;73.05
23953;BME280;12163;49.316;6.092;2022-12-18T14:59:50;100362.38;;;-1.23;73.27
23953;BME280;12163;49.316;6.092;2022-12-18T15:02:25;100368.84;;;-1.25;72.89
23953;BME280;12163;49.316;6.092;2022-12-18T15:07:49;100364.00;;;-1.22;73.14